Time;durP1;ratioP1;P1;durP2;ratioP2;P2;SDS_P1;SDS_P2;PMS_P1;PMS_P2;Temp;Humidity;BMP_temperature;BMP_pressure;BME280_temperature;BME280_humidity;BME280_pressure;Samples;Min_cycle;Max_cycle;Signal;HPM_P1;HPM_P2
2022/01/16 00:00:40;;;;;;;47.58;25.38;;;4.40;99.90;;;;;;4983470;28;20049;-57
2022/01/16 00:05:52;;;;;;;53.88;25.85;;;4.40;99.90;;;;;;4976430;28;20523;-57
2022/01/16 00:08:18;;;;;;;50.53;25.67;;;4.30;99.90;;;;;;4981024;28;20027;-58
2022/01/16 00:10:43;;;;;;;55.47;27.08;;;4.30;99.90;;;;;;4978179;28;20043;-57
2022/01/16 00:13:09;;;;;;;51.55;25.92;;;4.30;99.90;;;;;;4983851;28;20073;-58
2022/01/16 00:15:34;;;;;;;49.97;24.80;;;4.30;99.90;;;;;;4975119;28;20536;-58
2022/01/16 00:18:19;;;;;;;49.63;24.23;;;4.20;99.90;;;;;;4977574;28;20555;-58
2022/01/16 00:20:44;;;;;;;48.47;25.50;;;4.20;99.90;;;;;;4984174;28;20429;-57
2022/01/16 00:23:10;;;;;;;56.25;26.20;;;4.30;99.90;;;;;;4980490;28;20065;-56
2022/01/16 00:25:36;;;;;;;48.53;24.35;;;4.30;99.90;;;;;;4978218;28;20027;-58
2022/01/16 00:28:02;;;;;;;50.50;25.52;;;4.20;99.90;;;;;;4978844;28;20023;-58
2022/01/16 00:30:28;;;;;;;45.55;24.27;;;4.30;99.90;;;;;;4972940;28;20480;-56
2022/01/16 00:32:59;;;;;;;50.75;24.90;;;4.20;99.90;;;;;;4977144;28;20138;-56
2022/01/16 00:35:25;;;;;;;49.08;24.85;;;4.20;99.90;;;;;;4963333;28;20485;-58
2022/01/16 00:37:52;;;;;;;55.65;26.95;;;4.20;99.90;;;;;;4979561;28;20070;-55
2022/01/16 00:40:18;;;;;;;45.47;24.58;;;4.20;99.90;;;;;;4981291;28;20106;-57
2022/01/16 00:42:44;;;;;;;45.28;24.65;;;4.20;99.90;;;;;;4980872;28;20034;-59
2022/01/16 00:45:10;;;;;;;45.83;25.38;;;4.20;99.90;;;;;;4984910;28;20038;-57
2022/01/16 00:47:36;;;;;;;51.92;26.63;;;4.20;99.90;;;;;;4977076;28;20464;-58
2022/01/16 00:50:03;;;;;;;45.15;25.05;;;4.20;99.90;;;;;;4969534;28;20042;-59
2022/01/16 00:52:29;;;;;;;49.13;24.20;;;4.20;99.90;;;;;;4976824;28;20100;-59
2022/01/16 00:54:57;;;;;;;48.83;25.70;;;4.20;99.90;;;;;;4977886;28;20467;-58
2022/01/16 00:57:22;;;;;;;54.88;26.17;;;4.10;99.90;;;;;;4978021;28;20046;-58
2022/01/16 00:59:48;;;;;;;47.05;24.27;;;4.10;99.90;;;;;;4977786;28;20031;-59
2022/01/16 01:02:13;;;;;;;47.65;26.60;;;4.10;99.90;;;;;;4969775;28;20038;-57
2022/01/16 01:04:39;;;;;;;44.80;24.02;;;4.10;99.90;;;;;;4976885;28;20038;-58
2022/01/16 01:07:05;;;;;;;47.97;24.58;;;4.10;99.90;;;;;;4985849;28;20846;-57
2022/01/16 01:09:30;;;;;;;45.20;24.60;;;4.10;99.90;;;;;;4979334;28;20389;-58
2022/01/16 01:11:57;;;;;;;49.13;24.70;;;4.10;99.90;;;;;;4984250;28;20035;-58
2022/01/16 01:14:37;;;;;;;47.10;24.73;;;4.00;99.90;;;;;;4980741;28;20038;-57
2022/01/16 01:17:04;;;;;;;44.85;24.13;;;4.00;99.90;;;;;;4982224;28;20034;-57
2022/01/16 01:19:33;;;;;;;42.47;23.65;;;4.00;99.90;;;;;;4981685;28;20102;-56
2022/01/16 01:21:59;;;;;;;49.42;25.52;;;4.00;99.90;;;;;;4985056;28;20599;-56
2022/01/16 01:24:27;;;;;;;42.92;24.13;;;4.00;99.90;;;;;;4980039;28;20400;-57
2022/01/16 01:27:11;;;;;;;46.30;24.67;;;3.90;99.90;;;;;;4973582;28;20053;-57
2022/01/16 01:29:38;;;;;;;44.58;23.15;;;3.90;99.90;;;;;;4977930;28;20041;-58
2022/01/16 01:32:04;;;;;;;50.33;23.92;;;3.90;99.90;;;;;;4981285;28;20023;-53
2022/01/16 01:34:30;;;;;;;44.60;25.10;;;3.90;99.90;;;;;;4993035;28;20514;-58
2022/01/16 01:36:56;;;;;;;51.88;25.95;;;4.00;99.90;;;;;;4980672;28;20134;-57
2022/01/16 01:39:23;;;;;;;50.90;25.77;;;4.00;99.90;;;;;;5036556;23;20371;-57
2022/01/16 01:41:54;;;;;;;57.33;27.05;;;4.00;99.90;;;;;;5065128;28;20054;-56
2022/01/16 01:52:53;;;;;;;51.42;26.15;;;4.00;99.90;;;;;;4972218;28;20089;-55
2022/01/16 01:55:19;;;;;;;47.80;25.52;;;4.00;99.90;;;;;;4966094;28;20043;-56
2022/01/16 01:57:45;;;;;;;53.58;27.23;;;4.00;99.90;;;;;;5005192;28;20041;-59
2022/01/16 02:00:17;;;;;;;59.85;29.25;;;4.00;99.90;;;;;;5054544;28;20029;-58
2022/01/16 02:03:12;;;;;;;55.03;29.23;;;3.90;99.90;;;;;;5054333;28;20029;-59
2022/01/16 02:05:41;;;;;;;58.40;29.63;;;3.90;99.90;;;;;;5058174;28;20474;-56
2022/01/16 02:08:07;;;;;;;59.72;30.40;;;3.90;99.90;;;;;;5069376;28;20065;-56
2022/01/16 02:10:35;;;;;;;66.07;33.30;;;3.90;99.90;;;;;;5062130;28;20025;-56
2022/01/16 02:13:04;;;;;;;63.60;32.80;;;3.80;99.90;;;;;;5067567;28;20020;-57
2022/01/16 02:34:43;;;;;;;68.40;33.95;;;3.80;99.90;;;;;;5042311;28;20391;-56
2022/01/16 02:37:12;;;;;;;68.30;34.33;;;3.80;99.90;;;;;;5051238;28;20042;-57
2022/01/16 02:39:41;;;;;;;65.63;35.75;;;3.80;99.90;;;;;;5060008;28;20036;-57
2022/01/16 02:42:11;;;;;;;65.82;34.33;;;3.80;99.90;;;;;;5043856;28;20033;-56
2022/01/16 02:44:45;;;;;;;67.88;34.78;;;3.70;99.90;;;;;;5052445;28;20396;-55
2022/01/16 02:47:13;;;;;;;69.43;35.88;;;3.70;99.90;;;;;;5045574;28;20025;-57
2022/01/16 02:49:41;;;;;;;68.38;34.80;;;3.70;99.90;;;;;;5059625;28;20012;-56
2022/01/16 02:52:09;;;;;;;70.82;36.90;;;3.70;99.90;;;;;;5055920;28;20025;-57
2022/01/16 02:54:38;;;;;;;75.15;36.35;;;3.70;99.90;;;;;;5031352;28;20534;-58
2022/01/16 02:57:06;;;;;;;67.95;35.47;;;3.70;99.90;;;;;;5059104;28;20422;-57
2022/01/16 02:59:33;;;;;;;74.05;35.85;;;3.70;99.90;;;;;;5053462;28;20029;-57
2022/01/16 03:02:00;;;;;;;78.90;37.83;;;3.70;99.90;;;;;;5065929;28;20036;-58
2022/01/16 03:04:27;;;;;;;76.97;36.25;;;3.80;99.90;;;;;;5055593;28;20068;-57
2022/01/16 03:06:53;;;;;;;82.40;37.97;;;3.80;99.90;;;;;;5065327;28;20029;-56
2022/01/16 03:09:20;;;;;;;74.63;37.28;;;3.80;99.90;;;;;;5057964;28;20490;-56
2022/01/16 03:11:49;;;;;;;75.22;34.35;;;3.80;99.90;;;;;;5064137;28;20028;-56
2022/01/16 03:14:18;;;;;;;78.63;36.00;;;3.80;99.90;;;;;;5060018;28;20082;-57
2022/01/16 03:16:47;;;;;;;75.47;36.70;;;3.80;99.90;;;;;;5061783;28;20469;-57
2022/01/16 03:22:03;;;;;;;79.85;37.05;;;3.80;99.90;;;;;;5062668;28;20136;-56
2022/01/16 03:24:36;;;;;;;80.13;33.05;;;3.90;99.90;;;;;;5059458;28;20045;-56
2022/01/16 03:27:05;;;;;;;77.75;35.40;;;3.90;99.90;;;;;;5043622;28;20041;-55
2022/01/16 03:29:31;;;;;;;80.78;36.58;;;3.90;99.90;;;;;;5060573;28;20024;-56
2022/01/16 03:31:58;;;;;;;82.00;35.03;;;3.80;99.90;;;;;;5055274;28;20033;-56
2022/01/16 03:34:24;;;;;;;81.35;36.85;;;3.80;99.90;;;;;;5069752;28;20066;-57
2022/01/16 03:36:50;;;;;;;79.90;34.08;;;3.80;99.90;;;;;;5058192;28;20040;-59
2022/01/16 03:39:17;;;;;;;73.75;35.55;;;3.80;99.90;;;;;;5068180;28;20036;-57
2022/01/16 03:41:43;;;;;;;78.05;36.30;;;3.80;99.90;;;;;;5060058;28;20389;-56
2022/01/16 03:44:10;;;;;;;81.13;36.28;;;3.80;99.90;;;;;;5053381;28;20030;-57
2022/01/16 03:46:41;;;;;;;94.30;36.65;;;3.90;99.90;;;;;;5058731;28;20017;-58
2022/01/16 03:49:10;;;;;;;81.00;35.28;;;3.90;99.90;;;;;;5046159;28;20025;-57
2022/01/16 03:51:37;;;;;;;92.43;34.85;;;3.80;99.90;;;;;;5058410;28;20025;-58
2022/01/16 03:54:05;;;;;;;84.80;38.47;;;3.80;99.90;;;;;;5044396;28;20029;-56
2022/01/16 03:56:31;;;;;;;92.90;40.15;;;3.70;99.90;;;;;;5061558;28;20416;-55
2022/01/16 03:58:56;;;;;;;74.68;34.22;;;3.70;99.90;;;;;;5060693;28;20029;-56
2022/01/16 04:01:24;;;;;;;73.57;34.47;;;3.60;99.90;;;;;;5069207;28;20059;-59
2022/01/16 04:03:53;;;;;;;82.10;35.22;;;3.60;99.90;;;;;;5051643;28;20544;-57
2022/01/16 04:06:20;;;;;;;75.93;34.05;;;3.80;99.90;;;;;;5062414;28;20074;-57
2022/01/16 04:08:47;;;;;;;79.18;32.60;;;3.60;99.90;;;;;;5053759;28;20048;-56
2022/01/16 04:11:12;;;;;;;85.88;35.40;;;3.50;99.90;;;;;;5057512;28;20457;-57
2022/01/16 04:13:47;;;;;;;78.18;33.65;;;3.50;99.90;;;;;;5062451;28;20060;-57
2022/01/16 04:16:13;;;;;;;74.40;33.80;;;3.50;99.90;;;;;;5064341;28;20032;-57
2022/01/16 04:18:38;;;;;;;70.18;29.65;;;3.60;99.90;;;;;;5062387;28;20470;-57
2022/01/16 04:21:04;;;;;;;73.35;32.65;;;3.60;99.90;;;;;;5055059;28;20032;-55
2022/01/16 04:23:30;;;;;;;69.47;31.42;;;3.60;99.90;;;;;;5059611;28;20413;-56
2022/01/16 04:25:56;;;;;;;68.65;29.95;;;3.60;99.90;;;;;;5052890;28;20033;-57
2022/01/16 04:28:24;;;;;;;69.40;30.80;;;3.60;99.90;;;;;;5068004;28;20404;-57
2022/01/16 04:30:51;;;;;;;73.15;33.00;;;3.60;99.90;;;;;;5052240;28;20029;-57
2022/01/16 04:33:18;;;;;;;73.88;32.97;;;3.60;99.90;;;;;;5066998;28;20438;-56
2022/01/16 04:35:43;;;;;;;69.95;32.13;;;3.50;99.90;;;;;;5056103;28;20498;-56
2022/01/16 04:38:09;;;;;;;77.30;32.80;;;3.60;99.90;;;;;;5056211;28;20052;-57
2022/01/16 04:43:47;;;;;;;76.22;32.97;;;3.60;99.90;;;;;;5060998;28;20032;-57
2022/01/16 04:46:04;;;;;;;77.35;34.17;;;3.60;99.90;;;;;;5060979;28;20043;-57
2022/01/16 04:48:30;;;;;;;77.25;34.50;;;3.60;99.90;;;;;;5054915;28;20033;-55
2022/01/16 04:50:56;;;;;;;74.45;32.50;;;3.60;99.90;;;;;;5058749;28;20474;-56
2022/01/16 04:53:21;;;;;;;70.32;31.80;;;3.60;99.90;;;;;;5057156;28;20116;-56
2022/01/16 04:55:48;;;;;;;69.40;31.42;;;3.60;99.90;;;;;;5064952;28;20458;-57
2022/01/16 04:58:13;;;;;;;78.22;33.97;;;3.60;99.90;;;;;;5055873;28;20178;-57
2022/01/16 05:00:39;;;;;;;73.15;31.10;;;3.60;99.90;;;;;;5067741;28;20433;-57
2022/01/16 05:03:05;;;;;;;70.88;30.75;;;3.60;99.90;;;;;;5052771;28;20024;-57
2022/01/16 05:05:30;;;;;;;68.78;30.55;;;3.60;99.90;;;;;;5057458;28;20501;-56
2022/01/16 05:07:57;;;;;;;67.07;31.08;;;3.60;99.90;;;;;;5061153;28;20152;-57
2022/01/16 05:10:22;;;;;;;64.15;28.85;;;3.60;99.90;;;;;;5059425;28;20068;-56
2022/01/16 05:12:50;;;;;;;71.82;31.98;;;3.60;99.90;;;;;;5060630;28;20036;-56
2022/01/16 05:18:01;;;;;;;69.00;30.55;;;3.60;99.90;;;;;;5061025;28;20044;-57
2022/01/16 05:20:27;;;;;;;68.03;31.52;;;3.60;99.90;;;;;;5050328;28;20057;-57
2022/01/16 05:22:52;;;;;;;60.25;28.70;;;3.60;99.90;;;;;;5062745;28;20113;-55
2022/01/16 05:25:18;;;;;;;61.42;29.25;;;3.60;99.90;;;;;;5052550;28;20025;-57
2022/01/16 05:27:44;;;;;;;67.05;30.15;;;3.60;99.90;;;;;;5062435;28;20374;-57
2022/01/16 05:30:11;;;;;;;66.88;28.35;;;3.60;99.90;;;;;;5055013;28;20493;-56
2022/01/16 05:32:36;;;;;;;64.13;29.40;;;3.60;99.90;;;;;;5055091;28;20420;-56
2022/01/16 05:35:02;;;;;;;67.45;30.05;;;3.60;99.90;;;;;;5060857;28;20043;-56
2022/01/16 05:37:28;;;;;;;66.35;29.73;;;3.50;99.90;;;;;;5065113;28;20116;-56
2022/01/16 05:39:54;;;;;;;68.88;31.20;;;3.50;99.90;;;;;;5060233;28;20537;-56
2022/01/16 05:42:20;;;;;;;67.60;28.70;;;3.50;99.90;;;;;;5065728;28;20441;-57
2022/01/16 05:44:46;;;;;;;74.82;30.85;;;3.60;99.90;;;;;;5060463;28;20086;-56
2022/01/16 05:47:12;;;;;;;73.90;31.13;;;3.60;99.90;;;;;;5067067;28;20033;-57
2022/01/16 05:49:40;;;;;;;74.75;30.25;;;3.60;99.90;;;;;;5057933;28;20071;-56
2022/01/16 05:52:06;;;;;;;83.57;32.30;;;3.60;99.90;;;;;;5048088;28;20478;-55
2022/01/16 05:54:33;;;;;;;79.50;33.55;;;3.60;99.90;;;;;;5048894;28;20082;-55
2022/01/16 05:56:58;;;;;;;84.88;34.58;;;3.60;99.90;;;;;;5051758;28;20087;-56
2022/01/16 05:59:24;;;;;;;93.22;36.30;;;3.60;99.90;;;;;;5063436;28;20432;-56
2022/01/16 06:01:50;;;;;;;88.93;36.10;;;3.60;99.90;;;;;;5061986;28;20037;-58
2022/01/16 06:04:15;;;;;;;98.20;38.95;;;3.50;99.90;;;;;;5049117;28;20036;-57
2022/01/16 06:06:41;;;;;;;101.13;39.05;;;3.50;99.90;;;;;;5051810;28;20021;-57
2022/01/16 06:09:06;;;;;;;100.50;38.85;;;3.60;99.90;;;;;;5060334;28;20067;-57
2022/01/16 06:11:32;;;;;;;96.38;37.47;;;3.60;99.90;;;;;;5060869;28;20029;-57
2022/01/16 06:13:58;;;;;;;104.57;40.40;;;3.60;99.90;;;;;;5066864;28;20034;-56
2022/01/16 06:16:23;;;;;;;104.03;40.92;;;3.60;99.90;;;;;;5062479;28;20055;-57
2022/01/16 06:18:49;;;;;;;107.38;40.67;;;3.60;99.90;;;;;;5066264;28;20037;-54
2022/01/16 06:21:15;;;;;;;100.57;39.92;;;3.60;99.90;;;;;;5065196;28;20029;-57
2022/01/16 06:23:40;;;;;;;96.40;39.22;;;3.60;99.90;;;;;;5062880;28;20111;-57
2022/01/16 06:26:07;;;;;;;103.47;40.53;;;3.60;99.90;;;;;;5059758;28;20169;-58
2022/01/16 06:28:32;;;;;;;109.97;41.40;;;3.60;99.90;;;;;;5072253;28;20033;-54
2022/01/16 06:30:59;;;;;;;102.10;40.05;;;3.60;99.90;;;;;;5057012;28;20033;-59
2022/01/16 06:33:25;;;;;;;104.05;37.95;;;3.70;99.90;;;;;;5069349;28;20493;-56
2022/01/16 06:35:51;;;;;;;111.75;41.33;;;3.70;99.90;;;;;;5059359;28;20044;-54
2022/01/16 06:38:16;;;;;;;99.93;36.38;;;3.70;99.90;;;;;;5068501;28;20121;-55
2022/01/16 06:40:43;;;;;;;90.13;35.75;;;3.70;99.90;;;;;;5061991;28;20044;-56
2022/01/16 06:43:09;;;;;;;92.90;35.85;;;3.70;99.90;;;;;;5067901;28;20078;-55
2022/01/16 06:45:34;;;;;;;85.03;34.75;;;3.70;99.90;;;;;;5064268;28;20040;-57
2022/01/16 06:48:00;;;;;;;85.68;33.70;;;3.70;99.90;;;;;;5058667;28;20040;-57
2022/01/16 06:50:26;;;;;;;78.32;32.17;;;3.70;99.90;;;;;;5065187;28;20033;-56
2022/01/16 06:52:51;;;;;;;78.93;31.67;;;3.70;99.90;;;;;;5059198;28;21654;-55
2022/01/16 06:55:17;;;;;;;80.15;31.63;;;3.60;99.90;;;;;;5059164;28;20071;-57
2022/01/16 06:57:43;;;;;;;73.00;29.40;;;3.70;99.90;;;;;;5055242;28;20032;-55
2022/01/16 07:00:09;;;;;;;76.63;30.98;;;3.70;99.90;;;;;;5067865;28;20036;-57
2022/01/16 07:02:36;;;;;;;72.93;30.10;;;3.60;99.90;;;;;;5058584;28;20038;-56
2022/01/16 07:05:02;;;;;;;73.57;30.02;;;3.70;99.90;;;;;;5067822;28;20035;-55
2022/01/16 07:07:28;;;;;;;70.53;30.75;;;3.70;99.90;;;;;;5060296;28;20037;-57
2022/01/16 07:09:54;;;;;;;70.30;28.95;;;3.70;99.90;;;;;;5054964;28;20097;-57
2022/01/16 07:12:19;;;;;;;76.32;30.80;;;3.70;99.90;;;;;;5063217;28;20048;-55
2022/01/16 07:14:47;;;;;;;83.88;32.15;;;3.70;99.90;;;;;;5062181;28;20028;-59
2022/01/16 07:17:13;;;;;;;75.63;32.47;;;3.70;99.90;;;;;;5063478;28;20447;-54
2022/01/16 07:19:38;;;;;;;81.35;34.13;;;3.70;99.90;;;;;;5063466;28;20021;-54
2022/01/16 07:22:04;;;;;;;78.47;31.30;;;3.80;99.90;;;;;;5061486;28;20037;-56
2022/01/16 07:24:30;;;;;;;94.22;35.83;;;3.80;99.90;;;;;;5052587;28;20025;-57
2022/01/16 07:26:58;;;;;;;86.55;34.30;;;3.80;99.90;;;;;;5065415;28;20431;-58
2022/01/16 07:29:23;;;;;;;86.18;33.85;;;3.70;99.90;;;;;;5054333;28;20105;-58
2022/01/16 07:31:49;;;;;;;93.35;34.45;;;3.70;99.90;;;;;;5056881;28;20492;-58
2022/01/16 07:34:14;;;;;;;90.55;34.58;;;3.70;99.90;;;;;;5057736;28;20378;-58
2022/01/16 07:36:40;;;;;;;90.05;33.65;;;3.60;99.90;;;;;;5065867;28;20028;-57
2022/01/16 07:39:06;;;;;;;97.60;34.25;;;3.70;99.90;;;;;;5076338;22;20102;-57
2022/01/16 07:41:32;;;;;;;95.68;34.67;;;3.70;99.90;;;;;;5030877;28;20100;-59
2022/01/16 07:43:57;;;;;;;92.00;36.78;;;3.60;99.90;;;;;;5000277;28;20093;-56
2022/01/16 07:46:23;;;;;;;96.53;36.97;;;3.60;99.90;;;;;;5014242;28;20037;-55
2022/01/16 07:48:49;;;;;;;93.13;36.63;;;3.50;99.90;;;;;;5005252;28;20025;-53
2022/01/16 07:51:14;;;;;;;97.20;36.33;;;3.50;99.90;;;;;;5020595;28;20167;-53
2022/01/16 07:53:40;;;;;;;105.22;39.50;;;3.60;99.90;;;;;;5023630;28;20432;-55
2022/01/16 07:56:06;;;;;;;107.68;39.63;;;3.60;99.90;;;;;;5024972;28;20390;-56
2022/01/16 07:58:31;;;;;;;114.00;41.05;;;3.50;99.90;;;;;;5022529;28;20047;-57
2022/01/16 08:00:57;;;;;;;124.18;46.33;;;3.50;99.90;;;;;;5002487;28;20038;-58
2022/01/16 08:03:23;;;;;;;119.85;43.13;;;3.50;99.90;;;;;;5019004;28;20036;-57
2022/01/16 08:05:49;;;;;;;124.25;44.08;;;3.50;99.90;;;;;;5018222;28;20505;-57
2022/01/16 08:08:15;;;;;;;134.02;45.53;;;3.40;99.90;;;;;;5010297;28;20125;-55
2022/01/16 08:10:41;;;;;;;125.53;44.55;;;3.40;99.90;;;;;;5017663;28;20018;-58
2022/01/16 08:13:07;;;;;;;128.93;44.33;;;3.40;99.90;;;;;;5025602;28;20030;-57
2022/01/16 08:15:33;;;;;;;121.25;40.08;;;3.40;99.90;;;;;;5019534;28;20390;-53
2022/01/16 08:17:59;;;;;;;123.07;44.13;;;3.40;99.90;;;;;;5004286;28;20470;-52
2022/01/16 08:20:25;;;;;;;130.25;45.17;;;3.30;99.90;;;;;;5021609;28;20061;-53
2022/01/16 08:22:51;;;;;;;142.27;47.20;;;3.40;99.90;;;;;;5026649;28;20025;-54
2022/01/16 08:25:17;;;;;;;145.85;46.28;;;3.40;99.90;;;;;;5004027;28;20034;-56
2022/01/16 08:27:42;;;;;;;141.02;47.10;;;3.40;99.90;;;;;;5024115;28;20037;-58
2022/01/16 08:30:09;;;;;;;138.55;47.13;;;3.40;99.90;;;;;;5021360;28;20454;-56
2022/01/16 08:32:35;;;;;;;136.80;47.28;;;3.40;99.90;;;;;;5019681;28;20021;-58
2022/01/16 08:35:01;;;;;;;137.20;46.17;;;3.40;99.90;;;;;;5024763;28;20037;-56
2022/01/16 08:37:27;;;;;;;140.98;44.20;;;3.50;99.90;;;;;;5021816;28;20034;-56
2022/01/16 08:39:53;;;;;;;139.82;46.75;;;3.40;99.90;;;;;;5023769;28;20041;-55
2022/01/16 08:42:18;;;;;;;137.95;45.65;;;3.40;99.90;;;;;;5023290;28;20120;-56
2022/01/16 08:44:44;;;;;;;144.80;46.35;;;3.30;99.90;;;;;;5016047;28;20026;-55
2022/01/16 08:47:10;;;;;;;153.70;48.08;;;3.30;99.90;;;;;;5000426;28;20030;-56
2022/01/16 08:49:36;;;;;;;156.88;48.92;;;3.20;99.90;;;;;;5025933;28;20759;-59
2022/01/16 08:52:03;;;;;;;153.15;48.55;;;3.20;99.90;;;;;;5017350;28;20033;-60
2022/01/16 08:54:29;;;;;;;154.20;49.08;;;3.20;99.90;;;;;;5023054;28;20057;-59
2022/01/16 08:56:54;;;;;;;158.50;48.72;;;3.20;99.90;;;;;;5017571;28;20399;-57
2022/01/16 08:59:20;;;;;;;146.90;48.42;;;3.20;99.90;;;;;;5022414;28;20105;-59
2022/01/16 09:01:46;;;;;;;147.25;45.13;;;3.20;99.90;;;;;;5022275;28;20029;-58
2022/01/16 09:04:12;;;;;;;149.07;46.10;;;3.20;99.90;;;;;;5008364;28;20037;-58
2022/01/16 09:06:37;;;;;;;154.57;49.55;;;3.20;99.90;;;;;;5021958;28;20112;-59
2022/01/16 09:09:03;;;;;;;158.98;48.97;;;3.20;99.90;;;;;;5026692;28;20057;-59
2022/01/16 09:11:29;;;;;;;158.50;48.53;;;3.30;99.90;;;;;;5020771;28;20112;-59
2022/01/16 09:13:55;;;;;;;145.93;48.50;;;3.20;99.90;;;;;;5016036;28;20118;-59
2022/01/16 09:16:21;;;;;;;159.55;49.72;;;3.20;99.90;;;;;;5027611;28;20030;-61
2022/01/16 09:18:48;;;;;;;159.10;50.65;;;3.20;99.90;;;;;;5018332;28;20371;-59
2022/01/16 09:21:16;;;;;;;163.10;47.63;;;3.20;99.90;;;;;;5026840;28;20037;-58
2022/01/16 09:23:46;;;;;;;164.82;48.05;;;3.20;99.90;;;;;;5012987;28;20022;-61
2022/01/16 09:26:12;;;;;;;155.70;48.55;;;3.30;99.90;;;;;;5010165;28;20131;-59
2022/01/16 09:28:38;;;;;;;167.57;48.97;;;3.30;99.90;;;;;;5016690;28;20022;-60
2022/01/16 09:31:05;;;;;;;171.13;49.97;;;3.30;99.90;;;;;;5010409;28;20094;-58
2022/01/16 09:33:30;;;;;;;151.32;47.80;;;3.30;99.90;;;;;;5019682;28;20040;-59
2022/01/16 09:35:56;;;;;;;140.90;44.67;;;3.30;99.90;;;;;;5006384;28;20034;-60
2022/01/16 09:38:22;;;;;;;160.80;46.60;;;3.30;99.90;;;;;;5019150;28;20046;-61
2022/01/16 09:40:49;;;;;;;163.45;47.78;;;3.30;99.90;;;;;;5019015;28;20630;-61
2022/01/16 09:43:16;;;;;;;154.63;46.28;;;3.30;99.90;;;;;;5021131;28;20029;-57
2022/01/16 09:45:42;;;;;;;145.38;46.70;;;3.30;99.90;;;;;;4992688;28;20110;-60
2022/01/16 09:48:07;;;;;;;160.10;46.05;;;3.40;99.90;;;;;;5018259;28;20411;-60
2022/01/16 09:50:34;;;;;;;160.93;47.45;;;3.40;99.90;;;;;;5011365;28;20096;-59
2022/01/16 09:53:00;;;;;;;166.10;50.60;;;3.40;99.90;;;;;;5011490;28;20018;-60
2022/01/16 09:55:26;;;;;;;167.30;49.92;;;3.30;99.90;;;;;;5008909;28;20030;-59
2022/01/16 09:57:55;;;;;;;160.02;49.53;;;3.40;99.90;;;;;;5022169;28;20117;-60
2022/01/16 10:00:24;;;;;;;169.98;50.72;;;3.40;99.90;;;;;;5014779;28;20034;-60
2022/01/16 10:02:50;;;;;;;171.82;48.92;;;3.40;99.90;;;;;;5019350;28;20032;-61
2022/01/16 10:05:37;;;;;;;152.90;45.30;;;3.40;99.90;;;;;;5030287;28;20079;-61
2022/01/16 10:08:08;;;;;;;166.55;48.75;;;3.40;99.90;;;;;;5020308;28;20021;-61
2022/01/16 10:10:37;;;;;;;156.50;48.08;;;3.40;99.90;;;;;;4993476;28;20377;-61
2022/01/16 10:13:23;;;;;;;155.13;45.35;;;3.40;99.90;;;;;;5006405;28;20117;-60
2022/01/16 10:15:57;;;;;;;158.38;45.55;;;3.40;99.90;;;;;;5012258;28;20498;-60
2022/01/16 10:18:40;;;;;;;154.95;46.40;;;3.40;99.90;;;;;;5018338;28;20037;-60
2022/01/16 10:21:07;;;;;;;168.32;47.05;;;3.50;99.90;;;;;;5005011;28;20030;-61
2022/01/16 10:23:41;;;;;;;155.90;47.22;;;3.50;99.90;;;;;;5012455;28;20022;-57
2022/01/16 10:26:20;;;;;;;163.63;46.45;;;3.50;99.90;;;;;;5023185;28;20040;-61
2022/01/16 10:28:46;;;;;;;154.38;44.97;;;3.50;99.90;;;;;;5020422;28;20351;-57
2022/01/16 10:31:22;;;;;;;158.93;42.72;;;3.50;99.90;;;;;;5020483;28;20029;-60
2022/01/16 10:33:49;;;;;;;161.15;49.28;;;3.60;99.90;;;;;;5014796;28;20038;-59
2022/01/16 10:36:33;;;;;;;162.15;48.25;;;3.60;99.90;;;;;;5021619;28;20044;-59
2022/01/16 10:39:10;;;;;;;158.60;45.80;;;3.60;99.90;;;;;;5019487;28;20043;-59
2022/01/16 10:41:36;;;;;;;156.65;44.42;;;3.60;99.90;;;;;;5012686;28;20068;-56
2022/01/16 10:44:02;;;;;;;155.18;45.17;;;3.60;99.90;;;;;;5010269;28;20040;-57
2022/01/16 10:46:28;;;;;;;140.93;43.65;;;3.60;99.90;;;;;;5022042;28;20030;-56
2022/01/16 10:49:13;;;;;;;157.57;46.38;;;3.70;99.90;;;;;;5015469;28;20058;-57
2022/01/16 10:51:39;;;;;;;140.82;44.33;;;3.70;99.90;;;;;;5003171;28;20022;-56
2022/01/16 10:54:31;;;;;;;137.32;44.95;;;3.70;99.90;;;;;;5002137;28;20415;-57
2022/01/16 10:56:57;;;;;;;137.57;42.40;;;3.70;99.90;;;;;;5014561;28;20503;-57
2022/01/16 10:59:24;;;;;;;138.05;42.63;;;3.70;99.90;;;;;;5016231;28;20095;-56
2022/01/16 11:02:08;;;;;;;140.70;42.50;;;3.70;99.90;;;;;;5022211;28;20060;-56
2022/01/16 11:04:34;;;;;;;153.27;43.03;;;3.70;99.90;;;;;;5022154;28;20480;-56
2022/01/16 11:07:04;;;;;;;133.50;42.75;;;3.80;99.90;;;;;;5018079;28;20040;-55
2022/01/16 11:09:31;;;;;;;140.20;41.78;;;3.70;99.90;;;;;;5017924;28;20034;-54
2022/01/16 11:11:59;;;;;;;135.27;41.28;;;3.70;99.90;;;;;;5000161;28;20026;-57
2022/01/16 11:14:29;;;;;;;142.88;42.08;;;3.70;99.90;;;;;;5018003;28;20091;-56
2022/01/16 11:16:56;;;;;;;139.25;40.85;;;3.80;99.90;;;;;;5018728;28;20041;-55
2022/01/16 11:19:24;;;;;;;128.50;41.35;;;3.80;99.90;;;;;;5011724;28;20045;-55
2022/01/16 11:22:03;;;;;;;130.63;41.15;;;3.80;99.90;;;;;;4993174;28;20156;-57
2022/01/16 11:24:45;;;;;;;127.03;40.10;;;3.80;99.90;;;;;;5019328;28;20120;-55
2022/01/16 11:27:11;;;;;;;131.95;40.10;;;3.80;99.90;;;;;;5017662;28;20116;-54
2022/01/16 11:29:37;;;;;;;121.57;39.28;;;3.80;99.90;;;;;;5011835;28;20034;-50
2022/01/16 11:32:03;;;;;;;124.18;39.67;;;3.80;99.90;;;;;;5012068;28;20034;-52
2022/01/16 11:34:29;;;;;;;130.15;40.55;;;3.90;99.90;;;;;;5012840;28;20061;-52
2022/01/16 11:36:55;;;;;;;117.28;35.83;;;3.80;99.90;;;;;;5012478;28;20018;-55
2022/01/16 11:39:22;;;;;;;119.22;36.85;;;3.90;99.90;;;;;;5011881;28;20522;-51
2022/01/16 11:41:57;;;;;;;116.03;37.30;;;3.90;99.90;;;;;;5002761;28;20196;-52
2022/01/16 11:44:31;;;;;;;117.70;38.45;;;3.90;99.90;;;;;;5021377;28;20049;-53
2022/01/16 11:46:59;;;;;;;108.15;35.85;;;3.90;99.90;;;;;;5027782;28;20044;-56
2022/01/16 11:49:36;;;;;;;110.53;37.00;;;3.90;99.90;;;;;;4992900;28;20037;-61
2022/01/16 11:52:07;;;;;;;110.47;34.97;;;3.90;99.90;;;;;;4991086;28;20357;-56
2022/01/16 11:54:35;;;;;;;116.72;36.50;;;3.90;99.90;;;;;;5022572;28;20018;-53
2022/01/16 11:57:04;;;;;;;116.40;35.17;;;3.90;99.90;;;;;;5023337;28;20033;-55
2022/01/16 11:59:41;;;;;;;121.93;38.80;;;3.90;99.90;;;;;;5014926;28;20038;-55
2022/01/16 12:02:10;;;;;;;111.30;35.20;;;4.00;99.90;;;;;;5023689;28;20450;-56
2022/01/16 12:04:36;;;;;;;114.70;36.58;;;4.00;99.90;;;;;;5024819;28;20078;-55
2022/01/16 12:07:15;;;;;;;121.25;37.50;;;4.00;99.90;;;;;;5023860;28;20100;-59
2022/01/16 12:09:53;;;;;;;99.53;31.13;;;4.00;99.90;;;;;;5023932;28;20105;-56
2022/01/16 12:12:18;;;;;;;107.80;37.33;;;4.00;99.90;;;;;;5012834;28;20097;-58
2022/01/16 12:14:50;;;;;;;117.60;36.60;;;4.00;99.90;;;;;;5016856;28;20132;-55
2022/01/16 12:17:43;;;;;;;120.70;38.15;;;4.00;99.90;;;;;;5024574;28;20025;-55
2022/01/16 12:20:15;;;;;;;126.32;39.33;;;4.00;99.90;;;;;;5020710;28;20029;-55
2022/01/16 12:22:56;;;;;;;109.07;34.97;;;4.10;99.90;;;;;;5018218;28;20415;-52
2022/01/16 12:25:37;;;;;;;115.70;37.95;;;4.10;99.90;;;;;;5000570;28;20432;-53
2022/01/16 12:28:09;;;;;;;123.57;39.87;;;4.10;99.90;;;;;;5009862;28;20063;-54
2022/01/16 12:30:55;;;;;;;130.48;39.78;;;4.10;99.90;;;;;;5017523;28;20026;-55
2022/01/16 12:33:38;;;;;;;135.98;40.90;;;4.20;99.90;;;;;;5031679;28;20021;-53
2022/01/16 12:36:10;;;;;;;123.95;39.05;;;4.20;99.90;;;;;;5031890;28;20034;-51
2022/01/16 12:38:59;;;;;;;117.05;38.67;;;4.20;99.90;;;;;;5031920;28;20025;-56
2022/01/16 12:41:33;;;;;;;120.38;36.35;;;4.20;99.90;;;;;;5030757;28;20056;-55
2022/01/16 12:44:11;;;;;;;141.70;43.38;;;4.20;99.90;;;;;;5013702;28;20057;-53
2022/01/16 12:46:41;;;;;;;132.93;42.17;;;4.30;99.90;;;;;;5018204;28;20028;-53
2022/01/16 12:49:19;;;;;;;136.93;43.72;;;4.30;99.90;;;;;;5011442;28;20037;-52
2022/01/16 12:51:48;;;;;;;118.07;40.78;;;4.30;99.90;;;;;;5011146;28;20033;-55
2022/01/16 12:54:22;;;;;;;135.40;43.22;;;4.30;99.90;;;;;;5011563;28;20026;-55
2022/01/16 12:56:58;;;;;;;127.70;42.60;;;4.30;99.90;;;;;;5001262;28;20079;-53
2022/01/16 12:59:32;;;;;;;118.78;39.05;;;4.40;99.90;;;;;;5010452;28;20510;-53
2022/01/16 13:02:00;;;;;;;128.00;41.47;;;4.40;99.90;;;;;;5031087;28;20411;-56
2022/01/16 13:04:28;;;;;;;130.43;43.25;;;4.40;99.90;;;;;;5017171;28;20130;-52
2022/01/16 13:06:56;;;;;;;130.93;43.17;;;4.50;99.90;;;;;;5011135;28;20026;-55
2022/01/16 13:09:22;;;;;;;132.20;43.95;;;4.50;99.90;;;;;;5005800;28;20029;-55
2022/01/16 13:11:51;;;;;;;118.35;41.50;;;4.50;99.90;;;;;;5015766;28;20045;-56
2022/01/16 13:14:25;;;;;;;127.95;42.63;;;4.60;99.90;;;;;;5022574;28;20436;-55
2022/01/16 13:16:56;;;;;;;120.80;43.28;;;4.60;99.90;;;;;;5021506;28;20407;-55